sensor_id;sensor_type;location;lat;lon;timestamp;P1;durP1;ratioP1;P2;durP2;ratioP2
1785;SDS011;890;48.158;11.540;2022-07-10T00:00:28;4.47;;;4.07;;
1785;SDS011;890;48.158;11.540;2022-07-10T00:02:55;6.30;;;4.47;;
1785;SDS011;890;48.158;11.540;2022-07-10T00:05:21;4.87;;;4.47;;
1785;SDS011;890;48.158;11.540;2022-07-10T00:07:48;4.80;;;4.40;;
1785;SDS011;890;48.158;11.540;2022-07-10T00:10:14;5.33;;;4.40;;
1785;SDS011;890;48.158;11.540;2022-07-10T00:12:40;5.70;;;4.30;;
1785;SDS011;890;48.158;11.540;2022-07-10T00:15:06;5.20;;;4.70;;
1785;SDS011;890;48.158;11.540;2022-07-10T00:17:32;5.00;;;4.60;;
1785;SDS011;890;48.158;11.540;2022-07-10T00:19:58;5.53;;;5.03;;
1785;SDS011;890;48.158;11.540;2022-07-10T00:22:24;5.10;;;4.80;;
1785;SDS011;890;48.158;11.540;2022-07-10T00:24:50;5.53;;;5.13;;
1785;SDS011;890;48.158;11.540;2022-07-10T00:27:19;5.80;;;5.30;;
1785;SDS011;890;48.158;11.540;2022-07-10T00:29:45;8.13;;;5.73;;
1785;SDS011;890;48.158;11.540;2022-07-10T00:32:11;6.20;;;5.73;;
1785;SDS011;890;48.158;11.540;2022-07-10T00:34:36;6.97;;;6.37;;
1785;SDS011;890;48.158;11.540;2022-07-10T00:37:03;6.70;;;6.10;;
1785;SDS011;890;48.158;11.540;2022-07-10T00:39:29;7.30;;;6.37;;
1785;SDS011;890;48.158;11.540;2022-07-10T00:41:55;6.93;;;6.33;;
1785;SDS011;890;48.158;11.540;2022-07-10T00:44:30;7.20;;;6.60;;
1785;SDS011;890;48.158;11.540;2022-07-10T00:46:55;6.97;;;6.43;;
1785;SDS011;890;48.158;11.540;2022-07-10T00:49:21;8.10;;;6.97;;
1785;SDS011;890;48.158;11.540;2022-07-10T00:51:46;7.90;;;7.30;;
1785;SDS011;890;48.158;11.540;2022-07-10T00:54:12;7.13;;;6.63;;
1785;SDS011;890;48.158;11.540;2022-07-10T00:56:38;7.87;;;7.20;;
1785;SDS011;890;48.158;11.540;2022-07-10T00:59:04;6.57;;;6.07;;
1785;SDS011;890;48.158;11.540;2022-07-10T01:01:29;7.23;;;6.53;;
1785;SDS011;890;48.158;11.540;2022-07-10T01:03:57;6.30;;;5.80;;
1785;SDS011;890;48.158;11.540;2022-07-10T01:06:22;6.67;;;6.17;;
1785;SDS011;890;48.158;11.540;2022-07-10T01:08:48;7.17;;;6.57;;
1785;SDS011;890;48.158;11.540;2022-07-10T01:11:14;6.80;;;6.10;;
1785;SDS011;890;48.158;11.540;2022-07-10T01:13:41;6.80;;;6.27;;
1785;SDS011;890;48.158;11.540;2022-07-10T01:16:09;6.37;;;5.87;;
1785;SDS011;890;48.158;11.540;2022-07-10T01:18:35;7.50;;;6.80;;
1785;SDS011;890;48.158;11.540;2022-07-10T01:21:00;6.40;;;5.97;;
1785;SDS011;890;48.158;11.540;2022-07-10T01:23:26;7.10;;;6.40;;
1785;SDS011;890;48.158;11.540;2022-07-10T01:25:52;6.93;;;6.33;;
1785;SDS011;890;48.158;11.540;2022-07-10T01:28:17;6.70;;;6.00;;
1785;SDS011;890;48.158;11.540;2022-07-10T01:30:45;7.37;;;6.77;;
1785;SDS011;890;48.158;11.540;2022-07-10T01:33:11;7.47;;;6.83;;
1785;SDS011;890;48.158;11.540;2022-07-10T01:35:36;6.93;;;6.40;;
1785;SDS011;890;48.158;11.540;2022-07-10T01:38:02;7.33;;;6.73;;
1785;SDS011;890;48.158;11.540;2022-07-10T01:40:27;7.07;;;6.47;;
1785;SDS011;890;48.158;11.540;2022-07-10T01:42:58;7.20;;;6.60;;
1785;SDS011;890;48.158;11.540;2022-07-10T01:45:24;8.83;;;7.50;;
1785;SDS011;890;48.158;11.540;2022-07-10T01:47:50;7.60;;;7.00;;
1785;SDS011;890;48.158;11.540;2022-07-10T01:50:16;7.23;;;6.53;;
1785;SDS011;890;48.158;11.540;2022-07-10T01:52:42;6.70;;;6.20;;
1785;SDS011;890;48.158;11.540;2022-07-10T01:55:07;8.07;;;7.47;;
1785;SDS011;890;48.158;11.540;2022-07-10T01:57:34;6.90;;;6.40;;
1785;SDS011;890;48.158;11.540;2022-07-10T01:59:59;7.10;;;6.60;;
1785;SDS011;890;48.158;11.540;2022-07-10T02:02:26;7.87;;;7.27;;
1785;SDS011;890;48.158;11.540;2022-07-10T02:04:51;7.80;;;7.20;;
1785;SDS011;890;48.158;11.540;2022-07-10T02:07:18;7.57;;;6.97;;
1785;SDS011;890;48.158;11.540;2022-07-10T02:09:46;6.83;;;6.23;;
1785;SDS011;890;48.158;11.540;2022-07-10T02:12:12;6.93;;;6.30;;
1785;SDS011;890;48.158;11.540;2022-07-10T02:14:40;7.37;;;6.77;;
1785;SDS011;890;48.158;11.540;2022-07-10T02:17:06;7.07;;;6.50;;
1785;SDS011;890;48.158;11.540;2022-07-10T02:19:33;7.00;;;6.40;;
1785;SDS011;890;48.158;11.540;2022-07-10T02:21:59;8.63;;;7.83;;
1785;SDS011;890;48.158;11.540;2022-07-10T02:24:25;7.30;;;6.70;;
1785;SDS011;890;48.158;11.540;2022-07-10T02:26:51;7.60;;;7.00;;
1785;SDS011;890;48.158;11.540;2022-07-10T02:29:17;7.60;;;6.90;;
1785;SDS011;890;48.158;11.540;2022-07-10T02:31:43;6.73;;;6.17;;
1785;SDS011;890;48.158;11.540;2022-07-10T02:34:09;7.77;;;7.07;;
1785;SDS011;890;48.158;11.540;2022-07-10T02:36:36;7.53;;;6.63;;
1785;SDS011;890;48.158;11.540;2022-07-10T02:39:03;7.57;;;6.87;;
1785;SDS011;890;48.158;11.540;2022-07-10T02:41:30;7.77;;;7.07;;
1785;SDS011;890;48.158;11.540;2022-07-10T02:43:55;8.30;;;7.50;;
1785;SDS011;890;48.158;11.540;2022-07-10T02:46:21;7.50;;;6.80;;
1785;SDS011;890;48.158;11.540;2022-07-10T02:48:47;8.20;;;7.50;;
1785;SDS011;890;48.158;11.540;2022-07-10T02:51:12;7.57;;;6.97;;
1785;SDS011;890;48.158;11.540;2022-07-10T02:53:38;7.03;;;6.33;;
1785;SDS011;890;48.158;11.540;2022-07-10T02:56:04;7.10;;;6.60;;
1785;SDS011;890;48.158;11.540;2022-07-10T02:58:30;8.57;;;7.77;;
1785;SDS011;890;48.158;11.540;2022-07-10T03:00:56;8.00;;;7.30;;
1785;SDS011;890;48.158;11.540;2022-07-10T03:03:22;7.90;;;7.10;;
1785;SDS011;890;48.158;11.540;2022-07-10T03:05:47;8.00;;;7.43;;
1785;SDS011;890;48.158;11.540;2022-07-10T03:08:13;8.57;;;7.77;;
1785;SDS011;890;48.158;11.540;2022-07-10T03:10:39;7.80;;;7.20;;
1785;SDS011;890;48.158;11.540;2022-07-10T03:13:05;8.20;;;7.50;;
1785;SDS011;890;48.158;11.540;2022-07-10T03:15:31;8.50;;;7.70;;
1785;SDS011;890;48.158;11.540;2022-07-10T03:17:56;8.27;;;7.57;;
1785;SDS011;890;48.158;11.540;2022-07-10T03:20:22;8.03;;;7.40;;
1785;SDS011;890;48.158;11.540;2022-07-10T03:22:48;7.20;;;6.60;;
1785;SDS011;890;48.158;11.540;2022-07-10T03:25:13;8.63;;;7.97;;
1785;SDS011;890;48.158;11.540;2022-07-10T03:27:39;8.20;;;7.50;;
1785;SDS011;890;48.158;11.540;2022-07-10T03:30:05;9.10;;;8.30;;
1785;SDS011;890;48.158;11.540;2022-07-10T03:32:31;9.10;;;8.40;;
1785;SDS011;890;48.158;11.540;2022-07-10T03:34:57;8.77;;;7.90;;
1785;SDS011;890;48.158;11.540;2022-07-10T03:37:22;8.77;;;7.97;;
1785;SDS011;890;48.158;11.540;2022-07-10T03:39:48;8.60;;;7.90;;
1785;SDS011;890;48.158;11.540;2022-07-10T03:42:14;8.20;;;7.50;;
1785;SDS011;890;48.158;11.540;2022-07-10T03:44:39;8.50;;;7.80;;
1785;SDS011;890;48.158;11.540;2022-07-10T03:47:05;9.13;;;7.87;;
1785;SDS011;890;48.158;11.540;2022-07-10T03:49:31;8.60;;;7.90;;
1785;SDS011;890;48.158;11.540;2022-07-10T03:52:00;9.63;;;8.30;;
1785;SDS011;890;48.158;11.540;2022-07-10T03:54:26;9.10;;;8.30;;
1785;SDS011;890;48.158;11.540;2022-07-10T03:56:56;8.57;;;7.83;;
1785;SDS011;890;48.158;11.540;2022-07-10T03:59:41;8.57;;;7.87;;
1785;SDS011;890;48.158;11.540;2022-07-10T04:02:07;9.00;;;8.17;;
1785;SDS011;890;48.158;11.540;2022-07-10T04:04:32;8.67;;;7.97;;
1785;SDS011;890;48.158;11.540;2022-07-10T04:06:58;8.87;;;8.07;;
1785;SDS011;890;48.158;11.540;2022-07-10T04:09:24;9.60;;;8.20;;
1785;SDS011;890;48.158;11.540;2022-07-10T04:11:49;8.10;;;7.37;;
1785;SDS011;890;48.158;11.540;2022-07-10T04:14:15;8.70;;;8.00;;
1785;SDS011;890;48.158;11.540;2022-07-10T04:16:41;8.87;;;8.07;;
1785;SDS011;890;48.158;11.540;2022-07-10T04:19:07;8.50;;;7.80;;
1785;SDS011;890;48.158;11.540;2022-07-10T04:21:32;8.20;;;7.50;;
1785;SDS011;890;48.158;11.540;2022-07-10T04:23:58;8.03;;;7.33;;
1785;SDS011;890;48.158;11.540;2022-07-10T04:26:24;8.70;;;7.80;;
1785;SDS011;890;48.158;11.540;2022-07-10T04:28:49;8.17;;;7.53;;
1785;SDS011;890;48.158;11.540;2022-07-10T04:31:15;8.13;;;7.43;;
1785;SDS011;890;48.158;11.540;2022-07-10T04:33:41;9.13;;;7.57;;
1785;SDS011;890;48.158;11.540;2022-07-10T04:36:06;8.20;;;7.60;;
1785;SDS011;890;48.158;11.540;2022-07-10T04:38:32;8.30;;;7.60;;
1785;SDS011;890;48.158;11.540;2022-07-10T04:40:58;7.80;;;7.10;;
1785;SDS011;890;48.158;11.540;2022-07-10T04:43:24;7.77;;;7.07;;
1785;SDS011;890;48.158;11.540;2022-07-10T04:45:49;7.47;;;6.87;;
1785;SDS011;890;48.158;11.540;2022-07-10T04:48:15;8.90;;;8.20;;
1785;SDS011;890;48.158;11.540;2022-07-10T04:50:40;8.63;;;7.93;;
1785;SDS011;890;48.158;11.540;2022-07-10T04:53:06;7.63;;;7.03;;
1785;SDS011;890;48.158;11.540;2022-07-10T04:55:32;8.30;;;7.60;;
1785;SDS011;890;48.158;11.540;2022-07-10T04:57:57;7.33;;;6.77;;
1785;SDS011;890;48.158;11.540;2022-07-10T05:00:23;12.40;;;8.40;;
1785;SDS011;890;48.158;11.540;2022-07-10T05:02:49;8.77;;;7.97;;
1785;SDS011;890;48.158;11.540;2022-07-10T05:05:15;8.73;;;7.83;;
1785;SDS011;890;48.158;11.540;2022-07-10T05:07:40;7.73;;;7.10;;
1785;SDS011;890;48.158;11.540;2022-07-10T05:10:06;8.80;;;8.10;;
1785;SDS011;890;48.158;11.540;2022-07-10T05:12:32;8.27;;;7.53;;
1785;SDS011;890;48.158;11.540;2022-07-10T05:14:58;8.80;;;8.00;;
1785;SDS011;890;48.158;11.540;2022-07-10T05:17:24;9.03;;;8.23;;
1785;SDS011;890;48.158;11.540;2022-07-10T05:19:51;9.10;;;8.23;;
1785;SDS011;890;48.158;11.540;2022-07-10T05:22:18;9.80;;;9.00;;
1785;SDS011;890;48.158;11.540;2022-07-10T05:24:44;10.50;;;9.50;;
1785;SDS011;890;48.158;11.540;2022-07-10T05:27:09;9.07;;;8.37;;
1785;SDS011;890;48.158;11.540;2022-07-10T05:29:35;9.10;;;8.23;;
1785;SDS011;890;48.158;11.540;2022-07-10T05:32:01;10.13;;;9.30;;
1785;SDS011;890;48.158;11.540;2022-07-10T05:34:26;10.00;;;9.10;;
1785;SDS011;890;48.158;11.540;2022-07-10T05:36:52;9.40;;;8.60;;
1785;SDS011;890;48.158;11.540;2022-07-10T05:39:17;10.20;;;9.40;;
1785;SDS011;890;48.158;11.540;2022-07-10T05:41:43;11.17;;;10.17;;
1785;SDS011;890;48.158;11.540;2022-07-10T05:44:08;10.17;;;9.27;;
1785;SDS011;890;48.158;11.540;2022-07-10T05:46:34;9.83;;;8.93;;
1785;SDS011;890;48.158;11.540;2022-07-10T05:48:59;10.63;;;9.63;;
1785;SDS011;890;48.158;11.540;2022-07-10T05:51:26;10.20;;;9.20;;
1785;SDS011;890;48.158;11.540;2022-07-10T05:53:51;10.93;;;9.93;;
1785;SDS011;890;48.158;11.540;2022-07-10T05:56:17;11.37;;;10.10;;
1785;SDS011;890;48.158;11.540;2022-07-10T05:58:43;10.27;;;9.37;;
1785;SDS011;890;48.158;11.540;2022-07-10T06:01:08;12.30;;;10.87;;
1785;SDS011;890;48.158;11.540;2022-07-10T06:03:34;9.20;;;8.40;;
1785;SDS011;890;48.158;11.540;2022-07-10T06:06:00;9.93;;;9.13;;
1785;SDS011;890;48.158;11.540;2022-07-10T06:08:26;9.90;;;9.07;;
1785;SDS011;890;48.158;11.540;2022-07-10T06:10:52;11.27;;;10.27;;
1785;SDS011;890;48.158;11.540;2022-07-10T06:13:18;10.13;;;9.23;;
1785;SDS011;890;48.158;11.540;2022-07-10T06:15:43;10.70;;;9.80;;
1785;SDS011;890;48.158;11.540;2022-07-10T06:18:09;10.60;;;9.60;;
1785;SDS011;890;48.158;11.540;2022-07-10T06:20:35;11.63;;;10.63;;
1785;SDS011;890;48.158;11.540;2022-07-10T06:23:00;11.70;;;10.70;;
1785;SDS011;890;48.158;11.540;2022-07-10T06:25:26;10.87;;;9.80;;
1785;SDS011;890;48.158;11.540;2022-07-10T06:27:52;10.80;;;9.90;;
1785;SDS011;890;48.158;11.540;2022-07-10T06:30:17;12.20;;;9.90;;
1785;SDS011;890;48.158;11.540;2022-07-10T06:32:43;12.23;;;9.90;;
1785;SDS011;890;48.158;11.540;2022-07-10T06:35:09;11.47;;;10.47;;
1785;SDS011;890;48.158;11.540;2022-07-10T06:37:35;10.93;;;10.03;;
1785;SDS011;890;48.158;11.540;2022-07-10T06:40:01;11.53;;;10.50;;
1785;SDS011;890;48.158;11.540;2022-07-10T06:42:27;11.67;;;10.70;;
1785;SDS011;890;48.158;11.540;2022-07-10T06:44:53;11.40;;;10.20;;
1785;SDS011;890;48.158;11.540;2022-07-10T06:47:19;11.77;;;10.67;;
1785;SDS011;890;48.158;11.540;2022-07-10T06:50:04;10.80;;;9.80;;
1785;SDS011;890;48.158;11.540;2022-07-10T06:52:31;10.60;;;9.63;;
1785;SDS011;890;48.158;11.540;2022-07-10T06:54:58;11.33;;;10.13;;
1785;SDS011;890;48.158;11.540;2022-07-10T06:57:24;12.50;;;11.40;;
1785;SDS011;890;48.158;11.540;2022-07-10T06:59:50;11.73;;;10.73;;
1785;SDS011;890;48.158;11.540;2022-07-10T07:02:17;11.87;;;10.77;;
1785;SDS011;890;48.158;11.540;2022-07-10T07:04:42;11.40;;;10.40;;
1785;SDS011;890;48.158;11.540;2022-07-10T07:07:09;11.00;;;10.07;;
1785;SDS011;890;48.158;11.540;2022-07-10T07:09:35;11.00;;;10.03;;
1785;SDS011;890;48.158;11.540;2022-07-10T07:12:01;10.23;;;9.33;;
1785;SDS011;890;48.158;11.540;2022-07-10T07:14:27;10.33;;;9.43;;
1785;SDS011;890;48.158;11.540;2022-07-10T07:16:52;10.40;;;9.50;;
1785;SDS011;890;48.158;11.540;2022-07-10T07:19:39;10.57;;;9.67;;
1785;SDS011;890;48.158;11.540;2022-07-10T07:22:24;10.90;;;10.00;;
1785;SDS011;890;48.158;11.540;2022-07-10T07:25:08;11.73;;;10.63;;
1785;SDS011;890;48.158;11.540;2022-07-10T07:27:36;10.17;;;9.30;;
1785;SDS011;890;48.158;11.540;2022-07-10T07:30:04;12.00;;;9.43;;
1785;SDS011;890;48.158;11.540;2022-07-10T07:32:31;11.07;;;10.00;;
1785;SDS011;890;48.158;11.540;2022-07-10T07:34:57;10.20;;;9.20;;
1785;SDS011;890;48.158;11.540;2022-07-10T07:37:22;9.13;;;8.30;;
1785;SDS011;890;48.158;11.540;2022-07-10T07:39:48;10.10;;;9.30;;
1785;SDS011;890;48.158;11.540;2022-07-10T07:42:14;9.80;;;8.90;;
1785;SDS011;890;48.158;11.540;2022-07-10T07:44:40;9.33;;;8.60;;
1785;SDS011;890;48.158;11.540;2022-07-10T07:47:05;9.77;;;8.93;;
1785;SDS011;890;48.158;11.540;2022-07-10T07:49:31;9.00;;;7.67;;
1785;SDS011;890;48.158;11.540;2022-07-10T07:51:56;7.83;;;7.00;;
1785;SDS011;890;48.158;11.540;2022-07-10T07:54:22;8.83;;;7.93;;
1785;SDS011;890;48.158;11.540;2022-07-10T07:56:47;7.67;;;7.07;;
1785;SDS011;890;48.158;11.540;2022-07-10T07:59:13;7.13;;;6.63;;
1785;SDS011;890;48.158;11.540;2022-07-10T08:01:38;7.23;;;6.63;;
1785;SDS011;890;48.158;11.540;2022-07-10T08:04:04;8.00;;;6.73;;
1785;SDS011;890;48.158;11.540;2022-07-10T08:06:30;8.00;;;7.20;;
1785;SDS011;890;48.158;11.540;2022-07-10T08:08:55;7.53;;;6.83;;
1785;SDS011;890;48.158;11.540;2022-07-10T08:11:21;7.13;;;6.43;;
1785;SDS011;890;48.158;11.540;2022-07-10T08:13:47;6.90;;;6.30;;
1785;SDS011;890;48.158;11.540;2022-07-10T08:16:13;6.50;;;5.33;;
1785;SDS011;890;48.158;11.540;2022-07-10T08:18:38;6.93;;;6.33;;
1785;SDS011;890;48.158;11.540;2022-07-10T08:21:04;6.33;;;5.80;;
1785;SDS011;890;48.158;11.540;2022-07-10T08:23:30;6.53;;;5.93;;
1785;SDS011;890;48.158;11.540;2022-07-10T08:25:55;6.40;;;5.90;;
1785;SDS011;890;48.158;11.540;2022-07-10T08:28:21;5.60;;;5.20;;
1785;SDS011;890;48.158;11.540;2022-07-10T08:30:46;5.57;;;5.07;;
1785;SDS011;890;48.158;11.540;2022-07-10T08:33:12;5.53;;;5.07;;
1785;SDS011;890;48.158;11.540;2022-07-10T08:35:37;5.87;;;5.37;;
1785;SDS011;890;48.158;11.540;2022-07-10T08:38:03;5.33;;;4.83;;
1785;SDS011;890;48.158;11.540;2022-07-10T08:40:33;5.03;;;4.30;;
1785;SDS011;890;48.158;11.540;2022-07-10T08:43:01;4.10;;;3.70;;
1785;SDS011;890;48.158;11.540;2022-07-10T08:45:27;4.80;;;4.40;;
1785;SDS011;890;48.158;11.540;2022-07-10T08:47:59;4.43;;;4.03;;
1785;SDS011;890;48.158;11.540;2022-07-10T08:50:28;5.47;;;4.47;;
1785;SDS011;890;48.158;11.540;2022-07-10T08:55:25;4.27;;;3.73;;
1785;SDS011;890;48.158;11.540;2022-07-10T08:57:51;4.20;;;3.90;;
1785;SDS011;890;48.158;11.540;2022-07-10T09:00:19;3.97;;;3.67;;
1785;SDS011;890;48.158;11.540;2022-07-10T09:02:45;3.90;;;3.60;;
1785;SDS011;890;48.158;11.540;2022-07-10T09:05:11;3.77;;;3.47;;
1785;SDS011;890;48.158;11.540;2022-07-10T09:07:36;4.13;;;3.80;;
1785;SDS011;890;48.158;11.540;2022-07-10T09:10:06;4.37;;;3.97;;
1785;SDS011;890;48.158;11.540;2022-07-10T09:12:49;3.40;;;3.20;;
1785;SDS011;890;48.158;11.540;2022-07-10T09:15:18;3.70;;;3.10;;
1785;SDS011;890;48.158;11.540;2022-07-10T09:17:50;3.80;;;3.17;;
1785;SDS011;890;48.158;11.540;2022-07-10T09:20:36;3.90;;;3.33;;
1785;SDS011;890;48.158;11.540;2022-07-10T09:23:19;5.03;;;3.33;;
1785;SDS011;890;48.158;11.540;2022-07-10T09:25:50;4.13;;;3.60;;
1785;SDS011;890;48.158;11.540;2022-07-10T09:28:17;3.27;;;2.97;;
1785;SDS011;890;48.158;11.540;2022-07-10T09:30:45;4.90;;;3.23;;
1785;SDS011;890;48.158;11.540;2022-07-10T09:33:16;3.43;;;3.10;;
1785;SDS011;890;48.158;11.540;2022-07-10T09:43:49;3.20;;;2.53;;
1785;SDS011;890;48.158;11.540;2022-07-10T09:46:17;3.27;;;2.90;;
1785;SDS011;890;48.158;11.540;2022-07-10T09:48:48;5.43;;;2.90;;
1785;SDS011;890;48.158;11.540;2022-07-10T09:51:25;3.27;;;2.97;;
1785;SDS011;890;48.158;11.540;2022-07-10T09:53:54;3.60;;;3.30;;
1785;SDS011;890;48.158;11.540;2022-07-10T09:56:21;2.90;;;2.70;;
1785;SDS011;890;48.158;11.540;2022-07-10T09:58:48;3.43;;;2.67;;
1785;SDS011;890;48.158;11.540;2022-07-10T10:01:17;4.80;;;3.00;;
1785;SDS011;890;48.158;11.540;2022-07-10T10:03:44;6.47;;;3.07;;
1785;SDS011;890;48.158;11.540;2022-07-10T10:06:15;2.83;;;2.60;;
1785;SDS011;890;48.158;11.540;2022-07-10T10:11:12;3.10;;;2.90;;
1785;SDS011;890;48.158;11.540;2022-07-10T10:13:40;3.80;;;2.27;;
1785;SDS011;890;48.158;11.540;2022-07-10T10:16:08;4.00;;;2.13;;
1785;SDS011;890;48.158;11.540;2022-07-10T10:18:34;4.33;;;2.40;;
1785;SDS011;890;48.158;11.540;2022-07-10T10:21:22;3.00;;;2.80;;
1785;SDS011;890;48.158;11.540;2022-07-10T10:23:48;2.73;;;2.53;;
1785;SDS011;890;48.158;11.540;2022-07-10T10:26:14;3.10;;;2.80;;
1785;SDS011;890;48.158;11.540;2022-07-10T10:28:40;2.70;;;2.50;;
1785;SDS011;890;48.158;11.540;2022-07-10T10:31:06;2.77;;;2.57;;
1785;SDS011;890;48.158;11.540;2022-07-10T10:36:04;2.70;;;2.50;;
1785;SDS011;890;48.158;11.540;2022-07-10T10:41:24;2.60;;;2.40;;
1785;SDS011;890;48.158;11.540;2022-07-10T10:46:33;4.27;;;2.80;;
1785;SDS011;890;48.158;11.540;2022-07-10T10:49:53;2.80;;;2.43;;
1785;SDS011;890;48.158;11.540;2022-07-10T10:52:24;2.73;;;2.53;;
1785;SDS011;890;48.158;11.540;2022-07-10T10:59:57;2.30;;;2.10;;
1785;SDS011;890;48.158;11.540;2022-07-10T11:02:31;4.30;;;2.17;;
1785;SDS011;890;48.158;11.540;2022-07-10T11:10:26;2.50;;;2.30;;
1785;SDS011;890;48.158;11.540;2022-07-10T11:12:58;4.00;;;2.27;;
1785;SDS011;890;48.158;11.540;2022-07-10T11:15:37;2.80;;;2.10;;
1785;SDS011;890;48.158;11.540;2022-07-10T11:18:11;3.17;;;2.50;;
1785;SDS011;890;48.158;11.540;2022-07-10T11:20:38;2.57;;;1.93;;
1785;SDS011;890;48.158;11.540;2022-07-10T11:25:45;2.67;;;1.90;;
1785;SDS011;890;48.158;11.540;2022-07-10T11:28:26;2.50;;;2.07;;
1785;SDS011;890;48.158;11.540;2022-07-10T11:31:00;3.10;;;2.40;;
1785;SDS011;890;48.158;11.540;2022-07-10T11:33:25;2.57;;;2.27;;
1785;SDS011;890;48.158;11.540;2022-07-10T11:35:52;2.50;;;2.30;;
1785;SDS011;890;48.158;11.540;2022-07-10T11:38:25;2.07;;;1.80;;
1785;SDS011;890;48.158;11.540;2022-07-10T11:40:52;2.30;;;2.10;;
1785;SDS011;890;48.158;11.540;2022-07-10T11:43:19;2.50;;;2.30;;
1785;SDS011;890;48.158;11.540;2022-07-10T11:45:49;3.03;;;2.13;;
1785;SDS011;890;48.158;11.540;2022-07-10T11:48:18;3.07;;;1.80;;
1785;SDS011;890;48.158;11.540;2022-07-10T11:50:45;2.27;;;1.97;;
1785;SDS011;890;48.158;11.540;2022-07-10T11:53:11;2.23;;;2.03;;
1785;SDS011;890;48.158;11.540;2022-07-10T11:55:37;2.00;;;1.90;;
1785;SDS011;890;48.158;11.540;2022-07-10T11:58:12;2.77;;;2.57;;
1785;SDS011;890;48.158;11.540;2022-07-10T12:00:38;3.77;;;2.13;;
1785;SDS011;890;48.158;11.540;2022-07-10T12:03:18;2.20;;;1.97;;
1785;SDS011;890;48.158;11.540;2022-07-10T12:05:45;2.63;;;2.00;;
1785;SDS011;890;48.158;11.540;2022-07-10T12:08:11;2.97;;;2.17;;
1785;SDS011;890;48.158;11.540;2022-07-10T12:10:38;2.27;;;2.07;;
1785;SDS011;890;48.158;11.540;2022-07-10T12:13:13;2.23;;;2.03;;
1785;SDS011;890;48.158;11.540;2022-07-10T12:15:41;2.10;;;1.90;;
1785;SDS011;890;48.158;11.540;2022-07-10T12:18:08;2.30;;;2.10;;
1785;SDS011;890;48.158;11.540;2022-07-10T12:20:46;4.33;;;2.27;;
1785;SDS011;890;48.158;11.540;2022-07-10T12:23:17;2.77;;;1.93;;
1785;SDS011;890;48.158;11.540;2022-07-10T12:25:44;2.60;;;1.93;;
1785;SDS011;890;48.158;11.540;2022-07-10T12:28:11;3.53;;;2.23;;
1785;SDS011;890;48.158;11.540;2022-07-10T12:30:41;2.20;;;2.10;;
1785;SDS011;890;48.158;11.540;2022-07-10T12:33:13;3.17;;;2.20;;
1785;SDS011;890;48.158;11.540;2022-07-10T12:35:59;2.57;;;2.30;;
1785;SDS011;890;48.158;11.540;2022-07-10T12:38:28;2.87;;;1.90;;
1785;SDS011;890;48.158;11.540;2022-07-10T12:41:11;2.70;;;2.30;;
1785;SDS011;890;48.158;11.540;2022-07-10T12:43:38;2.10;;;1.90;;
1785;SDS011;890;48.158;11.540;2022-07-10T12:46:07;2.17;;;2.00;;
1785;SDS011;890;48.158;11.540;2022-07-10T12:48:37;2.93;;;2.30;;
1785;SDS011;890;48.158;11.540;2022-07-10T12:51:24;2.20;;;2.10;;
1785;SDS011;890;48.158;11.540;2022-07-10T12:53:51;3.33;;;1.93;;
1785;SDS011;890;48.158;11.540;2022-07-10T12:59:00;2.43;;;1.90;;
1785;SDS011;890;48.158;11.540;2022-07-10T13:01:39;2.60;;;2.30;;
1785;SDS011;890;48.158;11.540;2022-07-10T13:04:06;2.53;;;1.80;;
1785;SDS011;890;48.158;11.540;2022-07-10T13:06:33;2.53;;;1.93;;
1785;SDS011;890;48.158;11.540;2022-07-10T13:09:01;1.70;;;1.60;;
1785;SDS011;890;48.158;11.540;2022-07-10T13:11:28;3.50;;;2.00;;
1785;SDS011;890;48.158;11.540;2022-07-10T13:13:53;3.47;;;2.07;;
1785;SDS011;890;48.158;11.540;2022-07-10T13:16:20;2.00;;;1.90;;
1785;SDS011;890;48.158;11.540;2022-07-10T13:18:46;2.80;;;2.00;;
1785;SDS011;890;48.158;11.540;2022-07-10T13:21:12;2.77;;;2.17;;
1785;SDS011;890;48.158;11.540;2022-07-10T13:23:38;2.70;;;2.03;;
1785;SDS011;890;48.158;11.540;2022-07-10T13:26:05;2.20;;;2.00;;
1785;SDS011;890;48.158;11.540;2022-07-10T13:28:32;2.70;;;1.90;;
1785;SDS011;890;48.158;11.540;2022-07-10T13:30:58;2.23;;;2.03;;
1785;SDS011;890;48.158;11.540;2022-07-10T13:33:24;2.50;;;2.00;;
1785;SDS011;890;48.158;11.540;2022-07-10T13:35:50;2.40;;;2.20;;
1785;SDS011;890;48.158;11.540;2022-07-10T13:38:16;2.00;;;1.70;;
1785;SDS011;890;48.158;11.540;2022-07-10T13:40:45;2.30;;;2.10;;
1785;SDS011;890;48.158;11.540;2022-07-10T13:43:12;2.17;;;1.97;;
1785;SDS011;890;48.158;11.540;2022-07-10T13:45:38;2.67;;;1.97;;
1785;SDS011;890;48.158;11.540;2022-07-10T13:48:10;2.27;;;2.00;;
1785;SDS011;890;48.158;11.540;2022-07-10T13:50:40;2.20;;;2.00;;
1785;SDS011;890;48.158;11.540;2022-07-10T13:53:07;2.03;;;1.63;;
1785;SDS011;890;48.158;11.540;2022-07-10T13:55:33;3.50;;;1.83;;
1785;SDS011;890;48.158;11.540;2022-07-10T13:57:59;2.10;;;1.70;;
1785;SDS011;890;48.158;11.540;2022-07-10T14:00:25;2.63;;;1.60;;
1785;SDS011;890;48.158;11.540;2022-07-10T14:02:51;1.67;;;1.57;;
1785;SDS011;890;48.158;11.540;2022-07-10T14:05:17;3.00;;;1.90;;
1785;SDS011;890;48.158;11.540;2022-07-10T14:07:42;2.80;;;1.63;;
1785;SDS011;890;48.158;11.540;2022-07-10T14:10:08;2.27;;;1.90;;
1785;SDS011;890;48.158;11.540;2022-07-10T14:12:34;3.57;;;1.90;;
1785;SDS011;890;48.158;11.540;2022-07-10T14:14:59;3.00;;;1.87;;
1785;SDS011;890;48.158;11.540;2022-07-10T14:17:25;4.10;;;2.07;;
1785;SDS011;890;48.158;11.540;2022-07-10T14:19:53;2.93;;;1.80;;
1785;SDS011;890;48.158;11.540;2022-07-10T14:22:18;2.33;;;1.77;;
1785;SDS011;890;48.158;11.540;2022-07-10T14:24:44;4.43;;;2.10;;
1785;SDS011;890;48.158;11.540;2022-07-10T14:27:09;2.57;;;1.90;;
1785;SDS011;890;48.158;11.540;2022-07-10T14:29:35;3.67;;;2.10;;
1785;SDS011;890;48.158;11.540;2022-07-10T14:32:01;2.40;;;1.80;;
1785;SDS011;890;48.158;11.540;2022-07-10T14:34:27;2.67;;;1.83;;
1785;SDS011;890;48.158;11.540;2022-07-10T14:36:54;3.37;;;2.23;;
1785;SDS011;890;48.158;11.540;2022-07-10T14:39:19;1.60;;;1.50;;
1785;SDS011;890;48.158;11.540;2022-07-10T14:41:45;1.57;;;1.47;;
1785;SDS011;890;48.158;11.540;2022-07-10T14:44:10;3.70;;;1.60;;
1785;SDS011;890;48.158;11.540;2022-07-10T14:46:36;1.90;;;1.80;;
1785;SDS011;890;48.158;11.540;2022-07-10T14:49:02;1.90;;;1.80;;
1785;SDS011;890;48.158;11.540;2022-07-10T14:51:27;1.90;;;1.70;;
1785;SDS011;890;48.158;11.540;2022-07-10T14:53:54;2.30;;;1.40;;
1785;SDS011;890;48.158;11.540;2022-07-10T14:56:21;1.53;;;1.43;;
1785;SDS011;890;48.158;11.540;2022-07-10T14:58:47;2.07;;;1.67;;
1785;SDS011;890;48.158;11.540;2022-07-10T15:01:13;2.17;;;1.97;;
1785;SDS011;890;48.158;11.540;2022-07-10T15:03:39;1.50;;;1.40;;
1785;SDS011;890;48.158;11.540;2022-07-10T15:06:05;1.70;;;1.50;;
1785;SDS011;890;48.158;11.540;2022-07-10T15:08:31;1.67;;;1.57;;
1785;SDS011;890;48.158;11.540;2022-07-10T15:10:57;3.33;;;1.60;;
1785;SDS011;890;48.158;11.540;2022-07-10T15:13:24;1.67;;;1.50;;
1785;SDS011;890;48.158;11.540;2022-07-10T15:15:50;2.70;;;1.57;;
1785;SDS011;890;48.158;11.540;2022-07-10T15:18:17;2.30;;;1.40;;
1785;SDS011;890;48.158;11.540;2022-07-10T15:20:43;2.87;;;1.60;;
1785;SDS011;890;48.158;11.540;2022-07-10T15:23:09;2.30;;;1.50;;
1785;SDS011;890;48.158;11.540;2022-07-10T15:25:35;2.23;;;1.80;;
1785;SDS011;890;48.158;11.540;2022-07-10T15:28:04;3.00;;;1.60;;
1785;SDS011;890;48.158;11.540;2022-07-10T15:30:30;4.20;;;1.70;;
1785;SDS011;890;48.158;11.540;2022-07-10T15:32:56;2.70;;;1.50;;
1785;SDS011;890;48.158;11.540;2022-07-10T15:35:21;1.23;;;1.13;;
1785;SDS011;890;48.158;11.540;2022-07-10T15:37:48;2.23;;;1.53;;
1785;SDS011;890;48.158;11.540;2022-07-10T15:40:14;2.97;;;1.40;;
1785;SDS011;890;48.158;11.540;2022-07-10T15:42:40;1.63;;;1.53;;
1785;SDS011;890;48.158;11.540;2022-07-10T15:45:06;2.43;;;1.37;;
1785;SDS011;890;48.158;11.540;2022-07-10T15:47:31;1.60;;;1.03;;
1785;SDS011;890;48.158;11.540;2022-07-10T15:49:57;2.20;;;1.40;;